sensor_id;sensor_type;location;lat;lon;timestamp;P1;P2;P0
49064;PMS5003;34876;51.464;-0.150;2023-03-03T00:01:33;39;33;
49064;PMS5003;34876;51.464;-0.150;2023-03-03T00:04:03;43;38;
49064;PMS5003;34876;51.464;-0.150;2023-03-03T00:06:33;46;43;
49064;PMS5003;34876;51.464;-0.150;2023-03-03T00:09:02;38;36;
49064;PMS5003;34876;51.464;-0.150;2023-03-03T00:11:31;55;50;
49064;PMS5003;34876;51.464;-0.150;2023-03-03T00:14:00;39;38;
49064;PMS5003;34876;51.464;-0.150;2023-03-03T00:16:30;27;27;
49064;PMS5003;34876;51.464;-0.150;2023-03-03T00:19:06;48;39;
49064;PMS5003;34876;51.464;-0.150;2023-03-03T00:21:44;31;29;
49064;PMS5003;34876;51.464;-0.150;2023-03-03T00:24:18;33;32;
49064;PMS5003;34876;51.464;-0.150;2023-03-03T00:26:50;35;33;
49064;PMS5003;34876;51.464;-0.150;2023-03-03T00:29:25;32;30;
49064;PMS5003;34876;51.464;-0.150;2023-03-03T00:32:01;39;33;
49064;PMS5003;34876;51.464;-0.150;2023-03-03T00:34:46;29;27;
49064;PMS5003;34876;51.464;-0.150;2023-03-03T00:37:20;28;25;
49064;PMS5003;34876;51.464;-0.150;2023-03-03T00:39:54;40;38;
49064;PMS5003;34876;51.464;-0.150;2023-03-03T00:42:30;26;26;
49064;PMS5003;34876;51.464;-0.150;2023-03-03T00:45:04;33;29;
49064;PMS5003;34876;51.464;-0.150;2023-03-03T00:47:48;44;38;
49064;PMS5003;34876;51.464;-0.150;2023-03-03T00:50:34;44;40;
49064;PMS5003;34876;51.464;-0.150;2023-03-03T00:53:05;29;25;
49064;PMS5003;34876;51.464;-0.150;2023-03-03T00:55:39;31;29;
49064;PMS5003;34876;51.464;-0.150;2023-03-03T00:58:09;37;30;
49064;PMS5003;34876;51.464;-0.150;2023-03-03T01:03:19;8;8;
49064;PMS5003;34876;51.464;-0.150;2023-03-03T01:05:50;8;8;
49064;PMS5003;34876;51.464;-0.150;2023-03-03T01:08:20;7;7;
49064;PMS5003;34876;51.464;-0.150;2023-03-03T01:10:51;5;5;
49064;PMS5003;34876;51.464;-0.150;2023-03-03T01:13:25;3;3;
49064;PMS5003;34876;51.464;-0.150;2023-03-03T01:15:57;7;7;
49064;PMS5003;34876;51.464;-0.150;2023-03-03T01:18:28;4;4;
49064;PMS5003;34876;51.464;-0.150;2023-03-03T01:20:59;5;5;
49064;PMS5003;34876;51.464;-0.150;2023-03-03T01:23:28;3;3;
49064;PMS5003;34876;51.464;-0.150;2023-03-03T01:25:58;4;4;
49064;PMS5003;34876;51.464;-0.150;2023-03-03T01:28:27;6;6;
49064;PMS5003;34876;51.464;-0.150;2023-03-03T01:30:58;9;9;
49064;PMS5003;34876;51.464;-0.150;2023-03-03T01:33:28;5;5;
49064;PMS5003;34876;51.464;-0.150;2023-03-03T01:35:58;6;6;
49064;PMS5003;34876;51.464;-0.150;2023-03-03T01:38:27;8;7;
49064;PMS5003;34876;51.464;-0.150;2023-03-03T01:40:58;9;9;
49064;PMS5003;34876;51.464;-0.150;2023-03-03T01:43:28;9;8;
49064;PMS5003;34876;51.464;-0.150;2023-03-03T01:47:04;3;3;
49064;PMS5003;34876;51.464;-0.150;2023-03-03T01:49:38;5;4;
49064;PMS5003;34876;51.464;-0.150;2023-03-03T01:52:12;4;3;
49064;PMS5003;34876;51.464;-0.150;2023-03-03T01:54:49;5;5;
49064;PMS5003;34876;51.464;-0.150;2023-03-03T01:57:24;9;9;
49064;PMS5003;34876;51.464;-0.150;2023-03-03T01:59:59;10;9;
49064;PMS5003;34876;51.464;-0.150;2023-03-03T02:02:32;7;7;
49064;PMS5003;34876;51.464;-0.150;2023-03-03T02:05:04;5;5;
49064;PMS5003;34876;51.464;-0.150;2023-03-03T02:07:35;10;8;
49064;PMS5003;34876;51.464;-0.150;2023-03-03T02:10:06;3;3;
49064;PMS5003;34876;51.464;-0.150;2023-03-03T02:12:40;11;9;
49064;PMS5003;34876;51.464;-0.150;2023-03-03T02:15:15;8;8;
49064;PMS5003;34876;51.464;-0.150;2023-03-03T02:17:46;10;8;
49064;PMS5003;34876;51.464;-0.150;2023-03-03T02:20:19;5;5;
49064;PMS5003;34876;51.464;-0.150;2023-03-03T02:23:00;7;7;
49064;PMS5003;34876;51.464;-0.150;2023-03-03T02:25:36;10;10;
49064;PMS5003;34876;51.464;-0.150;2023-03-03T02:28:11;6;6;
49064;PMS5003;34876;51.464;-0.150;2023-03-03T02:30:40;7;7;
49064;PMS5003;34876;51.464;-0.150;2023-03-03T02:33:09;4;4;
49064;PMS5003;34876;51.464;-0.150;2023-03-03T02:35:39;6;5;
49064;PMS5003;34876;51.464;-0.150;2023-03-03T02:38:13;5;5;
49064;PMS5003;34876;51.464;-0.150;2023-03-03T02:40:50;7;7;
49064;PMS5003;34876;51.464;-0.150;2023-03-03T02:43:31;7;3;
49064;PMS5003;34876;51.464;-0.150;2023-03-03T02:46:06;7;7;
49064;PMS5003;34876;51.464;-0.150;2023-03-03T02:48:36;9;8;
49064;PMS5003;34876;51.464;-0.150;2023-03-03T02:51:05;10;8;
49064;PMS5003;34876;51.464;-0.150;2023-03-03T02:53:34;4;3;
49064;PMS5003;34876;51.464;-0.150;2023-03-03T02:56:04;6;5;
49064;PMS5003;34876;51.464;-0.150;2023-03-03T02:58:35;4;4;
49064;PMS5003;34876;51.464;-0.150;2023-03-03T03:01:04;4;4;
49064;PMS5003;34876;51.464;-0.150;2023-03-03T03:03:34;5;4;
49064;PMS5003;34876;51.464;-0.150;2023-03-03T03:06:06;4;4;
49064;PMS5003;34876;51.464;-0.150;2023-03-03T03:08:36;6;6;
49064;PMS5003;34876;51.464;-0.150;2023-03-03T03:11:05;7;6;
49064;PMS5003;34876;51.464;-0.150;2023-03-03T03:13:35;8;7;
49064;PMS5003;34876;51.464;-0.150;2023-03-03T03:16:08;8;8;
49064;PMS5003;34876;51.464;-0.150;2023-03-03T03:18:37;10;9;
49064;PMS5003;34876;51.464;-0.150;2023-03-03T03:21:07;7;7;
49064;PMS5003;34876;51.464;-0.150;2023-03-03T03:23:38;6;6;
49064;PMS5003;34876;51.464;-0.150;2023-03-03T03:26:08;9;9;
49064;PMS5003;34876;51.464;-0.150;2023-03-03T03:28:38;8;8;
49064;PMS5003;34876;51.464;-0.150;2023-03-03T03:31:08;5;5;
49064;PMS5003;34876;51.464;-0.150;2023-03-03T03:33:37;5;3;
49064;PMS5003;34876;51.464;-0.150;2023-03-03T03:36:06;6;4;
49064;PMS5003;34876;51.464;-0.150;2023-03-03T03:38:36;5;4;
49064;PMS5003;34876;51.464;-0.150;2023-03-03T03:41:06;7;7;
49064;PMS5003;34876;51.464;-0.150;2023-03-03T03:43:36;7;7;
49064;PMS5003;34876;51.464;-0.150;2023-03-03T03:46:05;3;3;
49064;PMS5003;34876;51.464;-0.150;2023-03-03T03:48:35;5;5;
49064;PMS5003;34876;51.464;-0.150;2023-03-03T03:51:04;5;4;
49064;PMS5003;34876;51.464;-0.150;2023-03-03T03:53:34;5;5;
49064;PMS5003;34876;51.464;-0.150;2023-03-03T03:56:03;4;4;
49064;PMS5003;34876;51.464;-0.150;2023-03-03T03:58:33;5;4;
49064;PMS5003;34876;51.464;-0.150;2023-03-03T04:01:03;5;5;
49064;PMS5003;34876;51.464;-0.150;2023-03-03T04:03:34;10;10;
49064;PMS5003;34876;51.464;-0.150;2023-03-03T04:06:06;7;5;
49064;PMS5003;34876;51.464;-0.150;2023-03-03T04:08:35;3;3;
49064;PMS5003;34876;51.464;-0.150;2023-03-03T04:11:04;3;3;
49064;PMS5003;34876;51.464;-0.150;2023-03-03T04:13:33;6;6;
49064;PMS5003;34876;51.464;-0.150;2023-03-03T04:16:02;4;4;
49064;PMS5003;34876;51.464;-0.150;2023-03-03T04:18:32;5;5;
49064;PMS5003;34876;51.464;-0.150;2023-03-03T04:21:01;4;4;
49064;PMS5003;34876;51.464;-0.150;2023-03-03T04:23:31;6;6;
49064;PMS5003;34876;51.464;-0.150;2023-03-03T04:26:00;6;6;
49064;PMS5003;34876;51.464;-0.150;2023-03-03T04:28:29;7;7;
49064;PMS5003;34876;51.464;-0.150;2023-03-03T04:30:59;6;6;
49064;PMS5003;34876;51.464;-0.150;2023-03-03T04:33:28;6;6;
49064;PMS5003;34876;51.464;-0.150;2023-03-03T04:35:59;6;6;
49064;PMS5003;34876;51.464;-0.150;2023-03-03T04:38:29;8;7;
49064;PMS5003;34876;51.464;-0.150;2023-03-03T04:40:58;4;4;
49064;PMS5003;34876;51.464;-0.150;2023-03-03T04:43:27;8;8;
49064;PMS5003;34876;51.464;-0.150;2023-03-03T04:45:57;8;8;
49064;PMS5003;34876;51.464;-0.150;2023-03-03T04:48:26;6;6;
49064;PMS5003;34876;51.464;-0.150;2023-03-03T04:50:56;7;6;
49064;PMS5003;34876;51.464;-0.150;2023-03-03T04:53:26;8;8;
49064;PMS5003;34876;51.464;-0.150;2023-03-03T04:55:55;11;10;
49064;PMS5003;34876;51.464;-0.150;2023-03-03T04:58:25;5;5;
49064;PMS5003;34876;51.464;-0.150;2023-03-03T05:00:55;6;6;
49064;PMS5003;34876;51.464;-0.150;2023-03-03T05:03:26;6;4;
49064;PMS5003;34876;51.464;-0.150;2023-03-03T05:05:56;7;7;
49064;PMS5003;34876;51.464;-0.150;2023-03-03T05:08:25;7;7;
49064;PMS5003;34876;51.464;-0.150;2023-03-03T05:10:55;7;5;
49064;PMS5003;34876;51.464;-0.150;2023-03-03T05:13:24;5;5;
49064;PMS5003;34876;51.464;-0.150;2023-03-03T05:15:55;6;6;
49064;PMS5003;34876;51.464;-0.150;2023-03-03T05:18:25;9;9;
49064;PMS5003;34876;51.464;-0.150;2023-03-03T05:20:55;5;5;
49064;PMS5003;34876;51.464;-0.150;2023-03-03T05:23:25;6;6;
49064;PMS5003;34876;51.464;-0.150;2023-03-03T05:25:54;12;9;
49064;PMS5003;34876;51.464;-0.150;2023-03-03T05:28:24;7;7;
49064;PMS5003;34876;51.464;-0.150;2023-03-03T05:30:54;4;4;
49064;PMS5003;34876;51.464;-0.150;2023-03-03T05:33:22;10;9;
49064;PMS5003;34876;51.464;-0.150;2023-03-03T05:35:52;7;7;
49064;PMS5003;34876;51.464;-0.150;2023-03-03T05:38:22;6;6;
49064;PMS5003;34876;51.464;-0.150;2023-03-03T05:40:51;7;7;
49064;PMS5003;34876;51.464;-0.150;2023-03-03T05:43:21;8;7;
49064;PMS5003;34876;51.464;-0.150;2023-03-03T05:45:53;7;6;
49064;PMS5003;34876;51.464;-0.150;2023-03-03T05:48:23;4;4;
49064;PMS5003;34876;51.464;-0.150;2023-03-03T05:50:52;6;6;
49064;PMS5003;34876;51.464;-0.150;2023-03-03T05:53:21;7;7;
49064;PMS5003;34876;51.464;-0.150;2023-03-03T05:55:52;7;7;
49064;PMS5003;34876;51.464;-0.150;2023-03-03T05:58:22;6;6;
49064;PMS5003;34876;51.464;-0.150;2023-03-03T06:00:51;4;4;
49064;PMS5003;34876;51.464;-0.150;2023-03-03T06:03:20;8;8;
49064;PMS5003;34876;51.464;-0.150;2023-03-03T06:05:50;6;6;
49064;PMS5003;34876;51.464;-0.150;2023-03-03T06:08:20;5;5;
49064;PMS5003;34876;51.464;-0.150;2023-03-03T06:10:49;5;5;
49064;PMS5003;34876;51.464;-0.150;2023-03-03T06:13:18;4;4;
49064;PMS5003;34876;51.464;-0.150;2023-03-03T06:15:47;5;5;
49064;PMS5003;34876;51.464;-0.150;2023-03-03T06:18:17;7;7;
49064;PMS5003;34876;51.464;-0.150;2023-03-03T06:20:50;7;7;
49064;PMS5003;34876;51.464;-0.150;2023-03-03T06:23:20;5;5;
49064;PMS5003;34876;51.464;-0.150;2023-03-03T06:25:50;11;11;
49064;PMS5003;34876;51.464;-0.150;2023-03-03T06:28:19;5;5;
49064;PMS5003;34876;51.464;-0.150;2023-03-03T06:30:48;4;4;
49064;PMS5003;34876;51.464;-0.150;2023-03-03T06:33:21;12;12;
49064;PMS5003;34876;51.464;-0.150;2023-03-03T06:35:51;6;6;
49064;PMS5003;34876;51.464;-0.150;2023-03-03T06:38:22;5;4;
49064;PMS5003;34876;51.464;-0.150;2023-03-03T06:40:52;7;7;
49064;PMS5003;34876;51.464;-0.150;2023-03-03T06:43:21;7;7;
49064;PMS5003;34876;51.464;-0.150;2023-03-03T06:45:50;6;6;
49064;PMS5003;34876;51.464;-0.150;2023-03-03T06:48:20;6;5;
49064;PMS5003;34876;51.464;-0.150;2023-03-03T06:50:49;4;4;
49064;PMS5003;34876;51.464;-0.150;2023-03-03T06:53:19;5;5;
49064;PMS5003;34876;51.464;-0.150;2023-03-03T06:55:48;8;7;
49064;PMS5003;34876;51.464;-0.150;2023-03-03T06:58:19;10;10;
49064;PMS5003;34876;51.464;-0.150;2023-03-03T07:00:49;5;5;
49064;PMS5003;34876;51.464;-0.150;2023-03-03T07:03:23;8;8;
49064;PMS5003;34876;51.464;-0.150;2023-03-03T07:05:52;7;7;
49064;PMS5003;34876;51.464;-0.150;2023-03-03T07:08:22;8;7;
49064;PMS5003;34876;51.464;-0.150;2023-03-03T07:10:52;4;4;
49064;PMS5003;34876;51.464;-0.150;2023-03-03T07:13:22;4;4;
49064;PMS5003;34876;51.464;-0.150;2023-03-03T07:15:55;9;8;
49064;PMS5003;34876;51.464;-0.150;2023-03-03T07:18:34;5;5;
49064;PMS5003;34876;51.464;-0.150;2023-03-03T07:21:12;8;8;
49064;PMS5003;34876;51.464;-0.150;2023-03-03T07:23:45;5;5;
49064;PMS5003;34876;51.464;-0.150;2023-03-03T07:26:18;11;8;
49064;PMS5003;34876;51.464;-0.150;2023-03-03T07:28:52;8;7;
49064;PMS5003;34876;51.464;-0.150;2023-03-03T07:31:27;7;7;
49064;PMS5003;34876;51.464;-0.150;2023-03-03T07:33:59;7;5;
49064;PMS5003;34876;51.464;-0.150;2023-03-03T07:36:34;6;6;
49064;PMS5003;34876;51.464;-0.150;2023-03-03T07:39:12;5;5;
49064;PMS5003;34876;51.464;-0.150;2023-03-03T07:41:49;3;2;
49064;PMS5003;34876;51.464;-0.150;2023-03-03T07:44:20;8;6;
49064;PMS5003;34876;51.464;-0.150;2023-03-03T07:46:54;5;5;
49064;PMS5003;34876;51.464;-0.150;2023-03-03T07:49:28;8;8;
49064;PMS5003;34876;51.464;-0.150;2023-03-03T07:52:15;6;6;
49064;PMS5003;34876;51.464;-0.150;2023-03-03T07:54:52;7;7;
49064;PMS5003;34876;51.464;-0.150;2023-03-03T07:57:24;4;4;
49064;PMS5003;34876;51.464;-0.150;2023-03-03T07:59:58;6;6;
49064;PMS5003;34876;51.464;-0.150;2023-03-03T08:02:36;5;4;
49064;PMS5003;34876;51.464;-0.150;2023-03-03T08:05:26;4;4;
49064;PMS5003;34876;51.464;-0.150;2023-03-03T08:08:01;6;5;
49064;PMS5003;34876;51.464;-0.150;2023-03-03T08:10:43;7;6;
49064;PMS5003;34876;51.464;-0.150;2023-03-03T08:13:16;5;5;
49064;PMS5003;34876;51.464;-0.150;2023-03-03T08:15:49;5;3;
49064;PMS5003;34876;51.464;-0.150;2023-03-03T08:18:27;9;9;
49064;PMS5003;34876;51.464;-0.150;2023-03-03T08:20:58;5;5;
49064;PMS5003;34876;51.464;-0.150;2023-03-03T08:23:28;6;6;
49064;PMS5003;34876;51.464;-0.150;2023-03-03T08:25:57;6;5;
49064;PMS5003;34876;51.464;-0.150;2023-03-03T08:28:27;5;5;
49064;PMS5003;34876;51.464;-0.150;2023-03-03T08:30:57;4;4;
49064;PMS5003;34876;51.464;-0.150;2023-03-03T08:33:25;4;4;
49064;PMS5003;34876;51.464;-0.150;2023-03-03T08:35:54;6;4;
49064;PMS5003;34876;51.464;-0.150;2023-03-03T08:38:23;4;4;
49064;PMS5003;34876;51.464;-0.150;2023-03-03T08:40:53;4;3;
49064;PMS5003;34876;51.464;-0.150;2023-03-03T08:43:23;5;4;
49064;PMS5003;34876;51.464;-0.150;2023-03-03T08:45:53;5;5;
49064;PMS5003;34876;51.464;-0.150;2023-03-03T08:48:29;5;5;
49064;PMS5003;34876;51.464;-0.150;2023-03-03T08:51:02;7;7;
49064;PMS5003;34876;51.464;-0.150;2023-03-03T08:53:32;9;6;
49064;PMS5003;34876;51.464;-0.150;2023-03-03T08:56:01;6;6;
49064;PMS5003;34876;51.464;-0.150;2023-03-03T08:58:31;3;3;
49064;PMS5003;34876;51.464;-0.150;2023-03-03T09:01:01;5;5;
49064;PMS5003;34876;51.464;-0.150;2023-03-03T09:03:31;8;7;
49064;PMS5003;34876;51.464;-0.150;2023-03-03T09:06:02;10;9;
49064;PMS5003;34876;51.464;-0.150;2023-03-03T09:08:32;7;7;
49064;PMS5003;34876;51.464;-0.150;2023-03-03T09:11:02;5;5;
49064;PMS5003;34876;51.464;-0.150;2023-03-03T09:13:37;4;4;
49064;PMS5003;34876;51.464;-0.150;2023-03-03T09:16:09;5;5;
49064;PMS5003;34876;51.464;-0.150;2023-03-03T09:18:41;6;6;
49064;PMS5003;34876;51.464;-0.150;2023-03-03T09:21:18;10;10;
49064;PMS5003;34876;51.464;-0.150;2023-03-03T09:23:52;7;7;
49064;PMS5003;34876;51.464;-0.150;2023-03-03T09:26:24;8;8;
49064;PMS5003;34876;51.464;-0.150;2023-03-03T09:28:58;6;5;
49064;PMS5003;34876;51.464;-0.150;2023-03-03T09:31:45;4;4;
49064;PMS5003;34876;51.464;-0.150;2023-03-03T09:34:20;5;5;
49064;PMS5003;34876;51.464;-0.150;2023-03-03T09:36:53;4;4;
49064;PMS5003;34876;51.464;-0.150;2023-03-03T09:39:25;4;4;
49064;PMS5003;34876;51.464;-0.150;2023-03-03T09:42:02;5;4;
49064;PMS5003;34876;51.464;-0.150;2023-03-03T09:44:52;3;3;
49064;PMS5003;34876;51.464;-0.150;2023-03-03T09:47:35;5;5;
49064;PMS5003;34876;51.464;-0.150;2023-03-03T09:50:17;10;9;
49064;PMS5003;34876;51.464;-0.150;2023-03-03T09:52:55;5;5;
49064;PMS5003;34876;51.464;-0.150;2023-03-03T09:55:38;4;4;
49064;PMS5003;34876;51.464;-0.150;2023-03-03T09:58:23;7;7;
49064;PMS5003;34876;51.464;-0.150;2023-03-03T10:01:07;4;4;
49064;PMS5003;34876;51.464;-0.150;2023-03-03T10:03:55;5;5;
49064;PMS5003;34876;51.464;-0.150;2023-03-03T10:06:34;5;5;
49064;PMS5003;34876;51.464;-0.150;2023-03-03T10:09:13;3;3;
49064;PMS5003;34876;51.464;-0.150;2023-03-03T10:12:10;6;6;
49064;PMS5003;34876;51.464;-0.150;2023-03-03T10:14:50;7;6;
49064;PMS5003;34876;51.464;-0.150;2023-03-03T10:17:34;5;5;
49064;PMS5003;34876;51.464;-0.150;2023-03-03T10:20:20;4;4;
49064;PMS5003;34876;51.464;-0.150;2023-03-03T10:22:59;6;6;
49064;PMS5003;34876;51.464;-0.150;2023-03-03T10:25:37;4;4;
49064;PMS5003;34876;51.464;-0.150;2023-03-03T10:28:28;4;3;
49064;PMS5003;34876;51.464;-0.150;2023-03-03T10:31:14;8;8;
49064;PMS5003;34876;51.464;-0.150;2023-03-03T10:33:53;4;4;
49064;PMS5003;34876;51.464;-0.150;2023-03-03T10:36:34;8;8;
49064;PMS5003;34876;51.464;-0.150;2023-03-03T10:39:17;6;6;
49064;PMS5003;34876;51.464;-0.150;2023-03-03T10:42:03;9;8;
49064;PMS5003;34876;51.464;-0.150;2023-03-03T10:44:47;2;2;
49064;PMS5003;34876;51.464;-0.150;2023-03-03T10:47:31;4;4;
49064;PMS5003;34876;51.464;-0.150;2023-03-03T10:50:13;5;3;
49064;PMS5003;34876;51.464;-0.150;2023-03-03T10:52:50;5;4;
49064;PMS5003;34876;51.464;-0.150;2023-03-03T10:55:30;3;2;
49064;PMS5003;34876;51.464;-0.150;2023-03-03T10:58:08;3;3;
49064;PMS5003;34876;51.464;-0.150;2023-03-03T11:00:51;5;5;
49064;PMS5003;34876;51.464;-0.150;2023-03-03T11:04:02;5;5;
49064;PMS5003;34876;51.464;-0.150;2023-03-03T11:06:45;5;5;
49064;PMS5003;34876;51.464;-0.150;2023-03-03T11:09:29;6;5;
49064;PMS5003;34876;51.464;-0.150;2023-03-03T11:12:16;7;6;
49064;PMS5003;34876;51.464;-0.150;2023-03-03T11:15:01;3;3;
49064;PMS5003;34876;51.464;-0.150;2023-03-03T11:17:46;7;7;
49064;PMS5003;34876;51.464;-0.150;2023-03-03T11:20:29;8;7;
49064;PMS5003;34876;51.464;-0.150;2023-03-03T11:23:06;7;7;
49064;PMS5003;34876;51.464;-0.150;2023-03-03T11:25:51;6;5;
49064;PMS5003;34876;51.464;-0.150;2023-03-03T11:28:36;5;3;
49064;PMS5003;34876;51.464;-0.150;2023-03-03T11:31:17;4;4;
49064;PMS5003;34876;51.464;-0.150;2023-03-03T11:33:56;4;4;
49064;PMS5003;34876;51.464;-0.150;2023-03-03T11:36:32;4;4;
49064;PMS5003;34876;51.464;-0.150;2023-03-03T11:39:06;3;3;
49064;PMS5003;34876;51.464;-0.150;2023-03-03T11:41:39;5;5;
49064;PMS5003;34876;51.464;-0.150;2023-03-03T11:44:12;5;4;
49064;PMS5003;34876;51.464;-0.150;2023-03-03T11:46:52;4;4;
49064;PMS5003;34876;51.464;-0.150;2023-03-03T11:49:24;4;3;
49064;PMS5003;34876;51.464;-0.150;2023-03-03T11:52:02;4;3;
49064;PMS5003;34876;51.464;-0.150;2023-03-03T11:54:48;12;10;
49064;PMS5003;34876;51.464;-0.150;2023-03-03T11:57:22;5;5;
49064;PMS5003;34876;51.464;-0.150;2023-03-03T12:00:00;3;3;
49064;PMS5003;34876;51.464;-0.150;2023-03-03T12:02:39;4;3;
49064;PMS5003;34876;51.464;-0.150;2023-03-03T12:05:21;3;3;
49064;PMS5003;34876;51.464;-0.150;2023-03-03T12:08:06;3;3;
49064;PMS5003;34876;51.464;-0.150;2023-03-03T12:10:42;7;7;
49064;PMS5003;34876;51.464;-0.150;2023-03-03T12:13:18;7;6;
49064;PMS5003;34876;51.464;-0.150;2023-03-03T12:15:52;5;4;
49064;PMS5003;34876;51.464;-0.150;2023-03-03T12:18:34;5;5;
49064;PMS5003;34876;51.464;-0.150;2023-03-03T12:21:18;7;7;
49064;PMS5003;34876;51.464;-0.150;2023-03-03T12:24:05;4;4;
49064;PMS5003;34876;51.464;-0.150;2023-03-03T12:26:49;6;6;
49064;PMS5003;34876;51.464;-0.150;2023-03-03T12:29:31;5;5;
49064;PMS5003;34876;51.464;-0.150;2023-03-03T12:32:12;6;6;
49064;PMS5003;34876;51.464;-0.150;2023-03-03T12:34:53;4;3;
49064;PMS5003;34876;51.464;-0.150;2023-03-03T12:37:39;7;7;
49064;PMS5003;34876;51.464;-0.150;2023-03-03T12:40:16;4;4;
49064;PMS5003;34876;51.464;-0.150;2023-03-03T12:42:51;4;3;
49064;PMS5003;34876;51.464;-0.150;2023-03-03T12:45:34;6;5;
49064;PMS5003;34876;51.464;-0.150;2023-03-03T12:48:14;5;5;
49064;PMS5003;34876;51.464;-0.150;2023-03-03T12:50:49;5;5;
49064;PMS5003;34876;51.464;-0.150;2023-03-03T12:53:29;7;6;
49064;PMS5003;34876;51.464;-0.150;2023-03-03T12:56:17;3;3;
49064;PMS5003;34876;51.464;-0.150;2023-03-03T12:58:57;6;6;
49064;PMS5003;34876;51.464;-0.150;2023-03-03T13:01:35;6;6;
49064;PMS5003;34876;51.464;-0.150;2023-03-03T13:04:16;4;4;
49064;PMS5003;34876;51.464;-0.150;2023-03-03T13:07:03;7;7;
49064;PMS5003;34876;51.464;-0.150;2023-03-03T13:09:41;5;5;
49064;PMS5003;34876;51.464;-0.150;2023-03-03T13:12:28;6;6;
49064;PMS5003;34876;51.464;-0.150;2023-03-03T13:15:06;6;6;
49064;PMS5003;34876;51.464;-0.150;2023-03-03T13:17:44;5;5;
49064;PMS5003;34876;51.464;-0.150;2023-03-03T13:20:25;5;5;
49064;PMS5003;34876;51.464;-0.150;2023-03-03T13:23:04;5;4;
49064;PMS5003;34876;51.464;-0.150;2023-03-03T13:25:40;9;7;
49064;PMS5003;34876;51.464;-0.150;2023-03-03T13:28:20;4;4;
49064;PMS5003;34876;51.464;-0.150;2023-03-03T13:31:00;3;3;
49064;PMS5003;34876;51.464;-0.150;2023-03-03T13:33:47;6;5;
49064;PMS5003;34876;51.464;-0.150;2023-03-03T13:36:21;5;5;
49064;PMS5003;34876;51.464;-0.150;2023-03-03T13:38:56;5;5;
49064;PMS5003;34876;51.464;-0.150;2023-03-03T13:41:30;5;5;
49064;PMS5003;34876;51.464;-0.150;2023-03-03T13:44:08;7;7;
49064;PMS5003;34876;51.464;-0.150;2023-03-03T13:46:44;10;7;
49064;PMS5003;34876;51.464;-0.150;2023-03-03T13:49:28;6;6;
49064;PMS5003;34876;51.464;-0.150;2023-03-03T13:52:09;5;4;
49064;PMS5003;34876;51.464;-0.150;2023-03-03T13:54:47;2;2;
49064;PMS5003;34876;51.464;-0.150;2023-03-03T13:57:29;4;4;
49064;PMS5003;34876;51.464;-0.150;2023-03-03T14:00:13;4;4;
49064;PMS5003;34876;51.464;-0.150;2023-03-03T14:02:54;7;6;
49064;PMS5003;34876;51.464;-0.150;2023-03-03T14:05:37;5;5;
49064;PMS5003;34876;51.464;-0.150;2023-03-03T14:08:14;5;4;
49064;PMS5003;34876;51.464;-0.150;2023-03-03T14:10:56;3;3;
49064;PMS5003;34876;51.464;-0.150;2023-03-03T14:13:37;4;4;
49064;PMS5003;34876;51.464;-0.150;2023-03-03T14:16:18;6;6;
49064;PMS5003;34876;51.464;-0.150;2023-03-03T14:18:58;2;2;
49064;PMS5003;34876;51.464;-0.150;2023-03-03T14:21:34;5;5;
49064;PMS5003;34876;51.464;-0.150;2023-03-03T14:24:12;3;3;
49064;PMS5003;34876;51.464;-0.150;2023-03-03T14:26:44;3;2;
49064;PMS5003;34876;51.464;-0.150;2023-03-03T14:29:19;6;6;
49064;PMS5003;34876;51.464;-0.150;2023-03-03T14:31:57;5;5;
49064;PMS5003;34876;51.464;-0.150;2023-03-03T14:34:29;6;5;
49064;PMS5003;34876;51.464;-0.150;2023-03-03T14:37:41;5;5;
49064;PMS5003;34876;51.464;-0.150;2023-03-03T14:40:15;3;3;
49064;PMS5003;34876;51.464;-0.150;2023-03-03T14:42:52;3;3;
49064;PMS5003;34876;51.464;-0.150;2023-03-03T14:45:28;1;1;
49064;PMS5003;34876;51.464;-0.150;2023-03-03T14:48:07;4;3;
49064;PMS5003;34876;51.464;-0.150;2023-03-03T14:50:46;4;4;
49064;PMS5003;34876;51.464;-0.150;2023-03-03T14:53:21;4;4;
49064;PMS5003;34876;51.464;-0.150;2023-03-03T14:56:14;5;5;
49064;PMS5003;34876;51.464;-0.150;2023-03-03T14:58:49;5;4;
49064;PMS5003;34876;51.464;-0.150;2023-03-03T15:01:21;6;6;
49064;PMS5003;34876;51.464;-0.150;2023-03-03T15:03:58;5;5;
49064;PMS5003;34876;51.464;-0.150;2023-03-03T15:06:32;5;5;
49064;PMS5003;34876;51.464;-0.150;2023-03-03T15:09:20;5;5;
49064;PMS5003;34876;51.464;-0.150;2023-03-03T15:11:53;4;4;
49064;PMS5003;34876;51.464;-0.150;2023-03-03T15:14:28;4;4;
49064;PMS5003;34876;51.464;-0.150;2023-03-03T15:17:12;4;4;
49064;PMS5003;34876;51.464;-0.150;2023-03-03T15:19:50;3;3;
49064;PMS5003;34876;51.464;-0.150;2023-03-03T15:22:36;4;3;
49064;PMS5003;34876;51.464;-0.150;2023-03-03T15:25:16;5;5;
49064;PMS5003;34876;51.464;-0.150;2023-03-03T15:28:00;4;3;
49064;PMS5003;34876;51.464;-0.150;2023-03-03T15:30:39;3;3;
49064;PMS5003;34876;51.464;-0.150;2023-03-03T15:33:18;3;3;
49064;PMS5003;34876;51.464;-0.150;2023-03-03T15:35:56;4;4;
49064;PMS5003;34876;51.464;-0.150;2023-03-03T15:38:33;4;4;
49064;PMS5003;34876;51.464;-0.150;2023-03-03T15:41:18;3;3;
49064;PMS5003;34876;51.464;-0.150;2023-03-03T15:43:56;2;2;
49064;PMS5003;34876;51.464;-0.150;2023-03-03T15:46:37;3;3;
49064;PMS5003;34876;51.464;-0.150;2023-03-03T15:49:23;3;3;
49064;PMS5003;34876;51.464;-0.150;2023-03-03T15:52:14;5;5;
49064;PMS5003;34876;51.464;-0.150;2023-03-03T15:54:55;5;5;
49064;PMS5003;34876;51.464;-0.150;2023-03-03T15:57:42;5;5;
49064;PMS5003;34876;51.464;-0.150;2023-03-03T16:00:24;6;5;
49064;PMS5003;34876;51.464;-0.150;2023-03-03T16:03:07;4;4;
49064;PMS5003;34876;51.464;-0.150;2023-03-03T16:05:47;3;3;
49064;PMS5003;34876;51.464;-0.150;2023-03-03T16:08:28;3;3;
49064;PMS5003;34876;51.464;-0.150;2023-03-03T16:11:08;5;5;
49064;PMS5003;34876;51.464;-0.150;2023-03-03T16:13:47;7;6;
49064;PMS5003;34876;51.464;-0.150;2023-03-03T16:16:30;6;6;
49064;PMS5003;34876;51.464;-0.150;2023-03-03T16:19:14;6;5;
49064;PMS5003;34876;51.464;-0.150;2023-03-03T16:22:03;7;7;
49064;PMS5003;34876;51.464;-0.150;2023-03-03T16:24:50;7;7;
49064;PMS5003;34876;51.464;-0.150;2023-03-03T16:27:29;8;6;
49064;PMS5003;34876;51.464;-0.150;2023-03-03T16:30:08;8;8;
49064;PMS5003;34876;51.464;-0.150;2023-03-03T16:33:07;3;3;
49064;PMS5003;34876;51.464;-0.150;2023-03-03T16:35:48;6;6;
49064;PMS5003;34876;51.464;-0.150;2023-03-03T16:38:27;4;4;
49064;PMS5003;34876;51.464;-0.150;2023-03-03T16:41:05;4;4;
49064;PMS5003;34876;51.464;-0.150;2023-03-03T16:43:43;5;4;
49064;PMS5003;34876;51.464;-0.150;2023-03-03T16:46:27;5;5;
49064;PMS5003;34876;51.464;-0.150;2023-03-03T16:49:02;4;4;
49064;PMS5003;34876;51.464;-0.150;2023-03-03T16:51:46;5;5;
49064;PMS5003;34876;51.464;-0.150;2023-03-03T16:54:23;7;6;
49064;PMS5003;34876;51.464;-0.150;2023-03-03T16:57:04;10;7;
49064;PMS5003;34876;51.464;-0.150;2023-03-03T16:59:49;4;4;
49064;PMS5003;34876;51.464;-0.150;2023-03-03T17:02:40;4;4;
49064;PMS5003;34876;51.464;-0.150;2023-03-03T17:06:18;6;4;
49064;PMS5003;34876;51.464;-0.150;2023-03-03T17:09:00;7;7;
49064;PMS5003;34876;51.464;-0.150;2023-03-03T17:11:58;7;7;
49064;PMS5003;34876;51.464;-0.150;2023-03-03T17:14:40;4;4;
49064;PMS5003;34876;51.464;-0.150;2023-03-03T17:17:19;3;3;
49064;PMS5003;34876;51.464;-0.150;2023-03-03T17:20:02;4;4;
49064;PMS5003;34876;51.464;-0.150;2023-03-03T17:22:45;5;5;
49064;PMS5003;34876;51.464;-0.150;2023-03-03T17:25:27;5;5;
49064;PMS5003;34876;51.464;-0.150;2023-03-03T17:28:13;5;5;
49064;PMS5003;34876;51.464;-0.150;2023-03-03T17:30:52;2;2;
49064;PMS5003;34876;51.464;-0.150;2023-03-03T17:33:45;2;2;